sensor_id;sensor_type;location;lat;lon;timestamp;pressure;altitude;pressure_sealevel;temperature;humidity
67457;BME280;54319;52.038;4.640;2023-08-07T00:01:25;101496.09;;;13.29;100.00
67457;BME280;54319;52.038;4.640;2023-08-07T00:03:51;101504.09;;;13.31;100.00
67457;BME280;54319;52.038;4.640;2023-08-07T00:06:18;101487.03;;;13.29;100.00
67457;BME280;54319;52.038;4.640;2023-08-07T00:08:46;101505.16;;;13.43;100.00
67457;BME280;54319;52.038;4.640;2023-08-07T00:11:14;101496.72;;;13.45;100.00
67457;BME280;54319;52.038;4.640;2023-08-07T00:13:40;101500.72;;;13.42;100.00
67457;BME280;54319;52.038;4.640;2023-08-07T00:16:07;101504.09;;;13.51;100.00
67457;BME280;54319;52.038;4.640;2023-08-07T00:18:35;101499.25;;;13.46;100.00
67457;BME280;54319;52.038;4.640;2023-08-07T00:21:02;101505.16;;;13.50;100.00
67457;BME280;54319;52.038;4.640;2023-08-07T00:23:29;101456.06;;;13.22;100.00
67457;BME280;54319;52.038;4.640;2023-08-07T00:25:55;101508.06;;;13.55;100.00
67457;BME280;54319;52.038;4.640;2023-08-07T00:28:23;101510.38;;;13.52;100.00
67457;BME280;54319;52.038;4.640;2023-08-07T00:30:50;101504.91;;;13.52;100.00
67457;BME280;54319;52.038;4.640;2023-08-07T00:33:16;101464.06;;;13.30;100.00
67457;BME280;54319;52.038;4.640;2023-08-07T00:35:43;101483.41;;;13.42;100.00
67457;BME280;54319;52.038;4.640;2023-08-07T00:38:10;101507.44;;;13.53;100.00
67457;BME280;54319;52.038;4.640;2023-08-07T00:40:37;101516.25;;;13.62;100.00
67457;BME280;54319;52.038;4.640;2023-08-07T00:43:04;101531.88;;;13.62;100.00
67457;BME280;54319;52.038;4.640;2023-08-07T00:45:36;101524.31;;;13.50;100.00
67457;BME280;54319;52.038;4.640;2023-08-07T00:48:04;101515.28;;;13.29;100.00
67457;BME280;54319;52.038;4.640;2023-08-07T00:50:31;101521.41;;;13.18;100.00
67457;BME280;54319;52.038;4.640;2023-08-07T00:52:59;101527.50;;;13.13;100.00
67457;BME280;54319;52.038;4.640;2023-08-07T00:55:26;101528.38;;;13.07;100.00
67457;BME280;54319;52.038;4.640;2023-08-07T00:57:53;101523.13;;;12.99;100.00
67457;BME280;54319;52.038;4.640;2023-08-07T01:00:20;101523.94;;;13.06;100.00
67457;BME280;54319;52.038;4.640;2023-08-07T01:02:49;101519.94;;;13.02;100.00
67457;BME280;54319;52.038;4.640;2023-08-07T01:05:17;101530.06;;;13.08;100.00
67457;BME280;54319;52.038;4.640;2023-08-07T01:07:46;101530.06;;;13.08;100.00
67457;BME280;54319;52.038;4.640;2023-08-07T01:10:17;101531.09;;;13.07;100.00
67457;BME280;54319;52.038;4.640;2023-08-07T01:12:48;101532.16;;;13.13;100.00
67457;BME280;54319;52.038;4.640;2023-08-07T01:15:20;101533.00;;;13.13;100.00
67457;BME280;54319;52.038;4.640;2023-08-07T01:17:52;101528.78;;;13.17;100.00
67457;BME280;54319;52.038;4.640;2023-08-07T01:20:20;101504.97;;;13.11;100.00
67457;BME280;54319;52.038;4.640;2023-08-07T01:22:48;101515.72;;;13.13;100.00
67457;BME280;54319;52.038;4.640;2023-08-07T01:25:15;101521.84;;;13.15;100.00
67457;BME280;54319;52.038;4.640;2023-08-07T01:27:45;101515.69;;;13.20;100.00
67457;BME280;54319;52.038;4.640;2023-08-07T01:30:17;101530.25;;;13.20;100.00
67457;BME280;54319;52.038;4.640;2023-08-07T01:32:53;101513.81;;;13.20;100.00
67457;BME280;54319;52.038;4.640;2023-08-07T01:35:23;101527.28;;;13.28;100.00
67457;BME280;54319;52.038;4.640;2023-08-07T01:37:54;101527.72;;;13.32;100.00
67457;BME280;54319;52.038;4.640;2023-08-07T01:40:22;101542.03;;;13.27;100.00
67457;BME280;54319;52.038;4.640;2023-08-07T01:42:49;101525.44;;;13.09;100.00
67457;BME280;54319;52.038;4.640;2023-08-07T01:45:22;101539.31;;;13.14;100.00
67457;BME280;54319;52.038;4.640;2023-08-07T01:47:49;101531.31;;;13.12;100.00
67457;BME280;54319;52.038;4.640;2023-08-07T01:50:17;101528.56;;;13.19;100.00
67457;BME280;54319;52.038;4.640;2023-08-07T01:52:44;101519.69;;;13.24;100.00
67457;BME280;54319;52.038;4.640;2023-08-07T01:55:12;101528.34;;;13.21;100.00
67457;BME280;54319;52.038;4.640;2023-08-07T01:57:39;101523.28;;;13.24;100.00
67457;BME280;54319;52.038;4.640;2023-08-07T02:00:06;101524.16;;;13.18;100.00
67457;BME280;54319;52.038;4.640;2023-08-07T02:02:34;101518.88;;;13.23;100.00
67457;BME280;54319;52.038;4.640;2023-08-07T02:05:01;101532.13;;;13.33;100.00
67457;BME280;54319;52.038;4.640;2023-08-07T02:07:27;101539.31;;;13.34;100.00
67457;BME280;54319;52.038;4.640;2023-08-07T02:09:54;101530.88;;;13.29;100.00
67457;BME280;54319;52.038;4.640;2023-08-07T02:12:22;101526.66;;;13.33;100.00
67457;BME280;54319;52.038;4.640;2023-08-07T02:14:49;101527.47;;;13.40;100.00
67457;BME280;54319;52.038;4.640;2023-08-07T02:17:16;101520.75;;;13.43;100.00
67457;BME280;54319;52.038;4.640;2023-08-07T02:19:43;101479.88;;;13.21;100.00
67457;BME280;54319;52.038;4.640;2023-08-07T02:22:09;101531.69;;;13.56;100.00
67457;BME280;54319;52.038;4.640;2023-08-07T02:24:36;101524.72;;;13.60;100.00
67457;BME280;54319;52.038;4.640;2023-08-07T02:27:03;101539.03;;;13.63;100.00
67457;BME280;54319;52.038;4.640;2023-08-07T02:29:31;101521.72;;;13.62;100.00
67457;BME280;54319;52.038;4.640;2023-08-07T02:31:59;101525.97;;;13.65;100.00
67457;BME280;54319;52.038;4.640;2023-08-07T02:34:26;101530.56;;;13.71;100.00
67457;BME280;54319;52.038;4.640;2023-08-07T02:36:52;101532.50;;;13.70;100.00
67457;BME280;54319;52.038;4.640;2023-08-07T02:39:19;101532.06;;;13.73;100.00
67457;BME280;54319;52.038;4.640;2023-08-07T02:41:46;101538.38;;;13.74;100.00
67457;BME280;54319;52.038;4.640;2023-08-07T02:44:15;101533.50;;;13.83;100.00
67457;BME280;54319;52.038;4.640;2023-08-07T02:46:44;101540.91;;;13.75;100.00
67457;BME280;54319;52.038;4.640;2023-08-07T02:49:10;101554.38;;;13.77;100.00
67457;BME280;54319;52.038;4.640;2023-08-07T02:51:37;101555.69;;;13.68;100.00
67457;BME280;54319;52.038;4.640;2023-08-07T02:54:05;101542.41;;;13.58;100.00
67457;BME280;54319;52.038;4.640;2023-08-07T02:56:31;101530.88;;;13.49;100.00
67457;BME280;54319;52.038;4.640;2023-08-07T02:58:59;101540.56;;;13.38;100.00
67457;BME280;54319;52.038;4.640;2023-08-07T03:01:27;101534.63;;;13.41;100.00
67457;BME280;54319;52.038;4.640;2023-08-07T03:03:55;101537.19;;;13.43;100.00
67457;BME280;54319;52.038;4.640;2023-08-07T03:06:21;101537.19;;;13.36;100.00
67457;BME280;54319;52.038;4.640;2023-08-07T03:08:48;101520.56;;;13.24;100.00
67457;BME280;54319;52.038;4.640;2023-08-07T03:11:15;101528.53;;;13.32;100.00
67457;BME280;54319;52.038;4.640;2023-08-07T03:13:41;101542.88;;;13.41;100.00
67457;BME280;54319;52.038;4.640;2023-08-07T03:16:09;101547.31;;;13.42;100.00
67457;BME280;54319;52.038;4.640;2023-08-07T03:18:36;101538.22;;;13.49;100.00
67457;BME280;54319;52.038;4.640;2023-08-07T03:21:04;101546.25;;;13.50;100.00
67457;BME280;54319;52.038;4.640;2023-08-07T03:23:31;101540.16;;;13.48;100.00
67457;BME280;54319;52.038;4.640;2023-08-07T03:26:04;101549.00;;;13.50;100.00
67457;BME280;54319;52.038;4.640;2023-08-07T03:28:31;101543.53;;;13.43;100.00
67457;BME280;54319;52.038;4.640;2023-08-07T03:30:58;101497.19;;;13.15;100.00
67457;BME280;54319;52.038;4.640;2023-08-07T03:33:25;101535.94;;;13.45;100.00
67457;BME280;54319;52.038;4.640;2023-08-07T03:35:52;101539.72;;;13.44;100.00
67457;BME280;54319;52.038;4.640;2023-08-07T03:38:20;101538.44;;;13.54;100.00
67457;BME280;54319;52.038;4.640;2023-08-07T03:40:46;101537.81;;;13.52;100.00
67457;BME280;54319;52.038;4.640;2023-08-07T03:43:13;101542.84;;;13.55;100.00
67457;BME280;54319;52.038;4.640;2023-08-07T03:45:40;101543.03;;;13.60;100.00
67457;BME280;54319;52.038;4.640;2023-08-07T03:48:06;101538.41;;;13.60;100.00
67457;BME280;54319;52.038;4.640;2023-08-07T03:50:34;101545.16;;;13.58;100.00
67457;BME280;54319;52.038;4.640;2023-08-07T03:53:03;101540.13;;;13.55;100.00
67457;BME280;54319;52.038;4.640;2023-08-07T03:55:33;101530.19;;;13.54;100.00
67457;BME280;54319;52.038;4.640;2023-08-07T03:58:00;101532.94;;;13.60;100.00
67457;BME280;54319;52.038;4.640;2023-08-07T04:00:26;101538.00;;;13.57;100.00
67457;BME280;54319;52.038;4.640;2023-08-07T04:02:53;101539.06;;;13.56;100.00
67457;BME280;54319;52.038;4.640;2023-08-07T04:05:20;101539.47;;;13.59;100.00
67457;BME280;54319;52.038;4.640;2023-08-07T04:07:46;101537.13;;;13.63;100.00
67457;BME280;54319;52.038;4.640;2023-08-07T04:10:13;101537.13;;;13.63;100.00
67457;BME280;54319;52.038;4.640;2023-08-07T04:12:41;101533.75;;;13.61;100.00
67457;BME280;54319;52.038;4.640;2023-08-07T04:15:08;101531.88;;;13.68;100.00
67457;BME280;54319;52.038;4.640;2023-08-07T04:17:35;101537.97;;;13.70;100.00
67457;BME280;54319;52.038;4.640;2023-08-07T04:20:02;101539.66;;;13.71;100.00
67457;BME280;54319;52.038;4.640;2023-08-07T04:22:30;101532.06;;;13.73;100.00
67457;BME280;54319;52.038;4.640;2023-08-07T04:24:57;101538.59;;;13.72;100.00
67457;BME280;54319;52.038;4.640;2023-08-07T04:27:25;101544.28;;;13.78;100.00
67457;BME280;54319;52.038;4.640;2023-08-07T04:29:53;101552.94;;;13.74;100.00
67457;BME280;54319;52.038;4.640;2023-08-07T04:32:20;101548.50;;;13.73;100.00
67457;BME280;54319;52.038;4.640;2023-08-07T04:34:46;101555.88;;;13.73;100.00
67457;BME280;54319;52.038;4.640;2023-08-07T04:37:13;101560.53;;;13.72;100.00
67457;BME280;54319;52.038;4.640;2023-08-07T04:39:40;101572.56;;;13.71;100.00
67457;BME280;54319;52.038;4.640;2023-08-07T04:42:06;101564.34;;;13.71;100.00
67457;BME280;54319;52.038;4.640;2023-08-07T04:44:33;101566.63;;;13.74;100.00
67457;BME280;54319;52.038;4.640;2023-08-07T04:47:01;101563.28;;;13.72;100.00
67457;BME280;54319;52.038;4.640;2023-08-07T04:49:28;101563.72;;;13.69;100.00
67457;BME280;54319;52.038;4.640;2023-08-07T04:51:54;101571.25;;;13.74;100.00
67457;BME280;54319;52.038;4.640;2023-08-07T04:54:21;101574.00;;;13.81;100.00
67457;BME280;54319;52.038;4.640;2023-08-07T04:56:48;101578.22;;;13.83;100.00
67457;BME280;54319;52.038;4.640;2023-08-07T04:59:14;101574.19;;;13.86;100.00
67457;BME280;54319;52.038;4.640;2023-08-07T05:01:41;101578.84;;;13.85;100.00
67457;BME280;54319;52.038;4.640;2023-08-07T05:04:09;101578.41;;;13.82;100.00
67457;BME280;54319;52.038;4.640;2023-08-07T05:06:35;101588.09;;;13.91;100.00
67457;BME280;54319;52.038;4.640;2023-08-07T05:09:02;101580.28;;;13.88;100.00
67457;BME280;54319;52.038;4.640;2023-08-07T05:11:29;101592.31;;;13.87;100.00
67457;BME280;54319;52.038;4.640;2023-08-07T05:13:56;101603.31;;;13.80;100.00
67457;BME280;54319;52.038;4.640;2023-08-07T05:16:22;101617.69;;;13.62;100.00
67457;BME280;54319;52.038;4.640;2023-08-07T05:18:49;101608.44;;;13.43;100.00
67457;BME280;54319;52.038;4.640;2023-08-07T05:21:17;101611.81;;;13.38;100.00
67457;BME280;54319;52.038;4.640;2023-08-07T05:23:44;101612.22;;;13.28;100.00
67457;BME280;54319;52.038;4.640;2023-08-07T05:26:10;101600.22;;;13.23;100.00
67457;BME280;54319;52.038;4.640;2023-08-07T05:28:37;101602.13;;;13.22;100.00
67457;BME280;54319;52.038;4.640;2023-08-07T05:31:04;101594.53;;;13.24;100.00
67457;BME280;54319;52.038;4.640;2023-08-07T05:33:30;101600.44;;;13.28;100.00
67457;BME280;54319;52.038;4.640;2023-08-07T05:35:57;101606.56;;;13.30;100.00
67457;BME280;54319;52.038;4.640;2023-08-07T05:38:25;101603.81;;;13.30;100.00
67457;BME280;54319;52.038;4.640;2023-08-07T05:40:52;101603.38;;;13.33;100.00
67457;BME280;54319;52.038;4.640;2023-08-07T05:43:18;101612.00;;;13.37;100.00
67457;BME280;54319;52.038;4.640;2023-08-07T05:45:45;101601.91;;;13.30;100.00
67457;BME280;54319;52.038;4.640;2023-08-07T05:48:14;101613.50;;;13.39;100.00
67457;BME280;54319;52.038;4.640;2023-08-07T05:50:41;101615.19;;;13.40;100.00
67457;BME280;54319;52.038;4.640;2023-08-07T05:53:08;101577.03;;;13.18;100.00
67457;BME280;54319;52.038;4.640;2023-08-07T05:55:39;101612.22;;;13.42;100.00
67457;BME280;54319;52.038;4.640;2023-08-07T05:58:05;101609.69;;;13.40;100.00
67457;BME280;54319;52.038;4.640;2023-08-07T06:00:32;101624.50;;;13.46;100.00
67457;BME280;54319;52.038;4.640;2023-08-07T06:02:59;101616.84;;;13.41;100.00
67457;BME280;54319;52.038;4.640;2023-08-07T06:05:26;101637.53;;;13.44;100.00
67457;BME280;54319;52.038;4.640;2023-08-07T06:07:52;101643.88;;;13.44;100.00
67457;BME280;54319;52.038;4.640;2023-08-07T06:10:19;101651.63;;;13.41;100.00
67457;BME280;54319;52.038;4.640;2023-08-07T06:12:47;101643.41;;;13.41;100.00
67457;BME280;54319;52.038;4.640;2023-08-07T06:15:13;101650.16;;;13.38;100.00
67457;BME280;54319;52.038;4.640;2023-08-07T06:17:40;101639.63;;;13.35;100.00
67457;BME280;54319;52.038;4.640;2023-08-07T06:20:08;101655.25;;;13.28;100.00
67457;BME280;54319;52.038;4.640;2023-08-07T06:22:36;101651.44;;;13.29;100.00
67457;BME280;54319;52.038;4.640;2023-08-07T06:25:03;101655.84;;;13.23;100.00
67457;BME280;54319;52.038;4.640;2023-08-07T06:27:31;101653.56;;;13.27;100.00
67457;BME280;54319;52.038;4.640;2023-08-07T06:29:59;101653.56;;;13.27;100.00
67457;BME280;54319;52.038;4.640;2023-08-07T06:32:26;101658.19;;;13.33;100.00
67457;BME280;54319;52.038;4.640;2023-08-07T06:34:52;101661.97;;;13.39;100.00
67457;BME280;54319;52.038;4.640;2023-08-07T06:37:19;101662.44;;;13.42;100.00
67457;BME280;54319;52.038;4.640;2023-08-07T06:39:46;101666.88;;;13.50;100.00
67457;BME280;54319;52.038;4.640;2023-08-07T06:42:13;101661.16;;;13.58;100.00
67457;BME280;54319;52.038;4.640;2023-08-07T06:44:39;101654.63;;;13.66;100.00
67457;BME280;54319;52.038;4.640;2023-08-07T06:47:08;101664.06;;;13.77;100.00
67457;BME280;54319;52.038;4.640;2023-08-07T06:49:34;101656.03;;;13.89;100.00
67457;BME280;54319;52.038;4.640;2023-08-07T06:52:01;101654.72;;;13.98;100.00
67457;BME280;54319;52.038;4.640;2023-08-07T06:54:28;101662.34;;;14.03;100.00
67457;BME280;54319;52.038;4.640;2023-08-07T06:56:55;101659.34;;;14.18;100.00
67457;BME280;54319;52.038;4.640;2023-08-07T06:59:21;101664.75;;;14.31;100.00
67457;BME280;54319;52.038;4.640;2023-08-07T07:01:49;101656.78;;;14.23;100.00
67457;BME280;54319;52.038;4.640;2023-08-07T07:04:17;101679.72;;;14.42;100.00
67457;BME280;54319;52.038;4.640;2023-08-07T07:06:44;101675.19;;;14.61;98.98
67457;BME280;54319;52.038;4.640;2023-08-07T07:09:11;101689.09;;;14.80;99.93
67457;BME280;54319;52.038;4.640;2023-08-07T07:11:42;101673.78;;;14.91;96.99
67457;BME280;54319;52.038;4.640;2023-08-07T07:14:09;101690.41;;;15.03;95.86
67457;BME280;54319;52.038;4.640;2023-08-07T07:16:35;101694.81;;;15.11;92.31
67457;BME280;54319;52.038;4.640;2023-08-07T07:19:03;101690.81;;;15.07;92.51
67457;BME280;54319;52.038;4.640;2023-08-07T07:21:33;101689.44;;;15.23;91.22
67457;BME280;54319;52.038;4.640;2023-08-07T07:23:59;101696.34;;;15.32;91.70
67457;BME280;54319;52.038;4.640;2023-08-07T07:26:26;101697.81;;;15.60;89.45
67457;BME280;54319;52.038;4.640;2023-08-07T07:28:53;101708.38;;;15.82;87.59
67457;BME280;54319;52.038;4.640;2023-08-07T07:31:20;101711.22;;;16.00;85.28
67457;BME280;54319;52.038;4.640;2023-08-07T07:33:47;101701.84;;;16.76;81.35
67457;BME280;54319;52.038;4.640;2023-08-07T07:36:15;101697.69;;;17.16;76.89
67457;BME280;54319;52.038;4.640;2023-08-07T07:38:45;101705.75;;;17.17;75.03
67457;BME280;54319;52.038;4.640;2023-08-07T07:41:12;101707.66;;;17.29;74.00
67457;BME280;54319;52.038;4.640;2023-08-07T07:43:39;101699.75;;;16.90;73.66
67457;BME280;54319;52.038;4.640;2023-08-07T07:46:06;101716.66;;;16.93;73.86
67457;BME280;54319;52.038;4.640;2023-08-07T07:48:32;101711.91;;;17.55;73.88
67457;BME280;54319;52.038;4.640;2023-08-07T07:51:00;101717.00;;;18.06;68.44
67457;BME280;54319;52.038;4.640;2023-08-07T07:53:26;101729.16;;;18.58;66.27
67457;BME280;54319;52.038;4.640;2023-08-07T07:55:55;101723.75;;;18.51;66.33
67457;BME280;54319;52.038;4.640;2023-08-07T07:58:22;101730.53;;;18.43;66.63
67457;BME280;54319;52.038;4.640;2023-08-07T08:00:48;101696.63;;;18.48;67.02
67457;BME280;54319;52.038;4.640;2023-08-07T08:03:17;101731.69;;;18.88;67.16
67457;BME280;54319;52.038;4.640;2023-08-07T08:05:44;101729.84;;;19.06;67.96
67457;BME280;54319;52.038;4.640;2023-08-07T08:08:11;101728.84;;;18.71;65.45
67457;BME280;54319;52.038;4.640;2023-08-07T08:10:39;101730.09;;;18.63;66.26
67457;BME280;54319;52.038;4.640;2023-08-07T08:13:09;101721.63;;;18.41;67.49
67457;BME280;54319;52.038;4.640;2023-08-07T08:15:36;101734.09;;;18.44;66.23
67457;BME280;54319;52.038;4.640;2023-08-07T08:18:03;101739.78;;;18.25;66.25
67457;BME280;54319;52.038;4.640;2023-08-07T08:20:30;101745.25;;;18.61;65.80
67457;BME280;54319;52.038;4.640;2023-08-07T08:22:57;101747.59;;;18.69;64.36
67457;BME280;54319;52.038;4.640;2023-08-07T08:25:24;101758.72;;;19.27;61.07
67457;BME280;54319;52.038;4.640;2023-08-07T08:27:51;101756.59;;;19.98;58.71
67457;BME280;54319;52.038;4.640;2023-08-07T08:30:19;101756.19;;;20.28;56.57
67457;BME280;54319;52.038;4.640;2023-08-07T08:32:46;101762.44;;;20.63;56.24
67457;BME280;54319;52.038;4.640;2023-08-07T08:35:13;101763.44;;;20.51;55.42
67457;BME280;54319;52.038;4.640;2023-08-07T08:37:40;101778.03;;;20.86;55.79
67457;BME280;54319;52.038;4.640;2023-08-07T08:40:08;101773.84;;;19.88;55.80
67457;BME280;54319;52.038;4.640;2023-08-07T08:42:39;101756.41;;;18.95;59.62
67457;BME280;54319;52.038;4.640;2023-08-07T08:45:08;101777.72;;;18.94;58.80
67457;BME280;54319;52.038;4.640;2023-08-07T08:47:38;101769.56;;;19.00;60.22
67457;BME280;54319;52.038;4.640;2023-08-07T08:50:07;101777.00;;;18.99;60.81
67457;BME280;54319;52.038;4.640;2023-08-07T08:52:35;101773.00;;;18.95;63.12
67457;BME280;54319;52.038;4.640;2023-08-07T08:55:03;101781.78;;;19.04;63.12
67457;BME280;54319;52.038;4.640;2023-08-07T08:57:30;101783.09;;;18.60;63.74
67457;BME280;54319;52.038;4.640;2023-08-07T08:59:57;101748.41;;;17.93;63.99
67457;BME280;54319;52.038;4.640;2023-08-07T09:02:24;101795.94;;;17.83;65.44
67457;BME280;54319;52.038;4.640;2023-08-07T09:04:52;101785.22;;;17.63;67.43
67457;BME280;54319;52.038;4.640;2023-08-07T09:07:20;101775.63;;;17.54;67.26
67457;BME280;54319;52.038;4.640;2023-08-07T09:09:47;101791.13;;;17.36;67.81
67457;BME280;54319;52.038;4.640;2023-08-07T09:12:20;101781.34;;;17.10;68.37
67457;BME280;54319;52.038;4.640;2023-08-07T09:14:50;101784.06;;;17.28;68.96
67457;BME280;54319;52.038;4.640;2023-08-07T09:17:22;101778.72;;;17.45;68.83
67457;BME280;54319;52.038;4.640;2023-08-07T09:19:50;101804.06;;;17.66;66.35
67457;BME280;54319;52.038;4.640;2023-08-07T09:22:20;101774.44;;;17.73;64.89
67457;BME280;54319;52.038;4.640;2023-08-07T09:24:47;101803.75;;;17.98;64.55
67457;BME280;54319;52.038;4.640;2023-08-07T09:27:14;101798.16;;;18.05;64.19
67457;BME280;54319;52.038;4.640;2023-08-07T09:29:43;101818.31;;;18.17;63.30
67457;BME280;54319;52.038;4.640;2023-08-07T09:32:12;101808.00;;;18.01;64.64
67457;BME280;54319;52.038;4.640;2023-08-07T09:34:39;101809.75;;;17.95;64.26
67457;BME280;54319;52.038;4.640;2023-08-07T09:37:07;101816.03;;;18.02;65.93
67457;BME280;54319;52.038;4.640;2023-08-07T09:39:35;101795.13;;;18.06;62.92
67457;BME280;54319;52.038;4.640;2023-08-07T09:42:02;101820.72;;;18.26;63.06
67457;BME280;54319;52.038;4.640;2023-08-07T09:44:35;101806.50;;;17.98;62.99
67457;BME280;54319;52.038;4.640;2023-08-07T09:47:11;101819.47;;;17.86;63.48
67457;BME280;54319;52.038;4.640;2023-08-07T09:49:38;101819.50;;;18.10;63.46
67457;BME280;54319;52.038;4.640;2023-08-07T09:52:06;101814.69;;;18.17;62.08
67457;BME280;54319;52.038;4.640;2023-08-07T09:54:35;101814.97;;;18.15;63.97
67457;BME280;54319;52.038;4.640;2023-08-07T09:57:02;101819.16;;;18.30;62.99
67457;BME280;54319;52.038;4.640;2023-08-07T09:59:32;101820.50;;;18.39;62.00
67457;BME280;54319;52.038;4.640;2023-08-07T10:01:59;101823.38;;;18.32;61.23
67457;BME280;54319;52.038;4.640;2023-08-07T10:04:29;101825.88;;;18.46;59.96
67457;BME280;54319;52.038;4.640;2023-08-07T10:06:56;101827.81;;;18.57;59.93
67457;BME280;54319;52.038;4.640;2023-08-07T10:09:23;101826.56;;;18.77;58.60
67457;BME280;54319;52.038;4.640;2023-08-07T10:11:54;101836.63;;;18.83;58.07
67457;BME280;54319;52.038;4.640;2023-08-07T10:14:22;101829.78;;;18.86;57.63
67457;BME280;54319;52.038;4.640;2023-08-07T10:16:48;101837.22;;;18.85;58.59
67457;BME280;54319;52.038;4.640;2023-08-07T10:19:16;101820.41;;;18.99;58.58
67457;BME280;54319;52.038;4.640;2023-08-07T10:21:43;101818.16;;;19.13;59.11
67457;BME280;54319;52.038;4.640;2023-08-07T10:24:12;101828.91;;;18.97;58.89
67457;BME280;54319;52.038;4.640;2023-08-07T10:26:43;101839.38;;;18.95;58.44
67457;BME280;54319;52.038;4.640;2023-08-07T10:29:14;101792.81;;;18.63;56.76
67457;BME280;54319;52.038;4.640;2023-08-07T10:31:44;101836.09;;;19.10;55.83
67457;BME280;54319;52.038;4.640;2023-08-07T10:34:12;101836.31;;;19.20;56.50
67457;BME280;54319;52.038;4.640;2023-08-07T10:36:39;101841.84;;;19.20;54.93
67457;BME280;54319;52.038;4.640;2023-08-07T10:39:06;101840.13;;;19.31;55.02
67457;BME280;54319;52.038;4.640;2023-08-07T10:41:40;101826.66;;;19.35;55.25
67457;BME280;54319;52.038;4.640;2023-08-07T10:44:18;101842.94;;;19.48;56.75
67457;BME280;54319;52.038;4.640;2023-08-07T10:46:49;101838.00;;;19.67;56.10
67457;BME280;54319;52.038;4.640;2023-08-07T10:49:30;101840.63;;;19.74;56.89
67457;BME280;54319;52.038;4.640;2023-08-07T10:51:58;101848.72;;;19.64;55.46
67457;BME280;54319;52.038;4.640;2023-08-07T10:54:25;101850.09;;;19.61;54.48
67457;BME280;54319;52.038;4.640;2023-08-07T10:56:53;101809.81;;;19.53;55.65
67457;BME280;54319;52.038;4.640;2023-08-07T10:59:21;101839.44;;;19.53;56.90
67457;BME280;54319;52.038;4.640;2023-08-07T11:01:55;101860.75;;;19.70;56.47
67457;BME280;54319;52.038;4.640;2023-08-07T11:04:22;101845.31;;;19.74;55.88
67457;BME280;54319;52.038;4.640;2023-08-07T11:06:51;101860.09;;;19.79;54.07
67457;BME280;54319;52.038;4.640;2023-08-07T11:09:18;101856.75;;;19.77;55.75
67457;BME280;54319;52.038;4.640;2023-08-07T11:11:46;101822.97;;;19.46;56.70
67457;BME280;54319;52.038;4.640;2023-08-07T11:14:14;101849.69;;;19.70;54.63
67457;BME280;54319;52.038;4.640;2023-08-07T11:16:43;101855.47;;;19.85;53.51
67457;BME280;54319;52.038;4.640;2023-08-07T11:19:11;101853.84;;;20.18;51.28
67457;BME280;54319;52.038;4.640;2023-08-07T11:21:40;101840.25;;;20.17;51.58
67457;BME280;54319;52.038;4.640;2023-08-07T11:24:07;101852.13;;;20.34;51.02
67457;BME280;54319;52.038;4.640;2023-08-07T11:26:35;101844.63;;;20.13;52.53
67457;BME280;54319;52.038;4.640;2023-08-07T11:29:01;101859.13;;;20.03;52.17
67457;BME280;54319;52.038;4.640;2023-08-07T11:31:30;101856.59;;;20.01;54.91
67457;BME280;54319;52.038;4.640;2023-08-07T11:33:58;101850.06;;;20.07;52.12
67457;BME280;54319;52.038;4.640;2023-08-07T11:36:25;101856.59;;;20.01;51.64
67457;BME280;54319;52.038;4.640;2023-08-07T11:38:52;101833.88;;;19.99;49.90
67457;BME280;54319;52.038;4.640;2023-08-07T11:41:19;101858.78;;;20.33;48.87
67457;BME280;54319;52.038;4.640;2023-08-07T11:43:46;101860.97;;;20.14;47.81
67457;BME280;54319;52.038;4.640;2023-08-07T11:46:14;101854.75;;;20.07;46.70
67457;BME280;54319;52.038;4.640;2023-08-07T11:48:42;101856.09;;;20.04;44.48
67457;BME280;54319;52.038;4.640;2023-08-07T11:51:11;101850.97;;;19.96;48.28
67457;BME280;54319;52.038;4.640;2023-08-07T11:53:40;101851.91;;;20.19;47.24
67457;BME280;54319;52.038;4.640;2023-08-07T11:56:08;101851.25;;;20.12;47.20
67457;BME280;54319;52.038;4.640;2023-08-07T11:58:40;101850.75;;;19.98;48.83
67457;BME280;54319;52.038;4.640;2023-08-07T12:01:11;101865.59;;;19.91;50.85
67457;BME280;54319;52.038;4.640;2023-08-07T12:03:39;101877.03;;;19.83;51.41
67457;BME280;54319;52.038;4.640;2023-08-07T12:06:08;101867.13;;;19.87;49.63
67457;BME280;54319;52.038;4.640;2023-08-07T12:08:37;101838.56;;;19.52;51.06
67457;BME280;54319;52.038;4.640;2023-08-07T12:11:05;101849.91;;;19.68;52.96
67457;BME280;54319;52.038;4.640;2023-08-07T12:13:32;101858.34;;;20.24;53.29
67457;BME280;54319;52.038;4.640;2023-08-07T12:16:00;101858.09;;;20.43;52.42
67457;BME280;54319;52.038;4.640;2023-08-07T12:18:28;101846.88;;;20.33;52.41
67457;BME280;54319;52.038;4.640;2023-08-07T12:20:59;101857.53;;;20.24;53.22
67457;BME280;54319;52.038;4.640;2023-08-07T12:23:26;101837.72;;;19.98;54.86
67457;BME280;54319;52.038;4.640;2023-08-07T12:25:54;101862.41;;;20.17;53.62
67457;BME280;54319;52.038;4.640;2023-08-07T12:28:20;101849.13;;;20.36;54.44
67457;BME280;54319;52.038;4.640;2023-08-07T12:30:48;101855.06;;;20.45;53.09
67457;BME280;54319;52.038;4.640;2023-08-07T12:33:14;101853.09;;;20.23;52.11
67457;BME280;54319;52.038;4.640;2023-08-07T12:35:41;101831.47;;;20.42;52.79
67457;BME280;54319;52.038;4.640;2023-08-07T12:38:08;101856.44;;;21.04;48.70
67457;BME280;54319;52.038;4.640;2023-08-07T12:40:35;101854.66;;;20.92;49.10
67457;BME280;54319;52.038;4.640;2023-08-07T12:43:04;101859.09;;;20.93;47.46
67457;BME280;54319;52.038;4.640;2023-08-07T12:45:30;101859.88;;;20.72;47.45
67457;BME280;54319;52.038;4.640;2023-08-07T12:47:57;101840.91;;;20.24;49.95